Etusivu
METAR-TAF:

METAR-TAF

Lentoasemat :

Meiringen, Sveitsi

Leveyspiiri: 46-44-25N, Pituuspiiri: 8-06-36E, korkeus merenpinnasta: 577 m

Tämänhetkinen sää

Tämä raportti tehtiin 12 minuuttia sitten, kello 21.50 UTC
Tuuli 6 kn idästä/kaakosta, vaihdellen koillisen ja etelän/kaakon välillä
Lämpötila 18°C
Kosteus 77%
Ilmanpaine 1017 hPa
Näkyvyys 10 km tai enemmän
Muutamia pilviä 5900 ft:n korkeudessa
Pilvistä 7300 ft:n korkeudessa

METAR: LSMM 222150Z AUTO 11006KT 050V150 9999NDV FEW059 OVC073 18/14 Q1017 RMK

Aika: 00:02 (22:02 UTC)


TAF: puuttuu

Säähavainnot ja -ennusteet yli 4000 lentoasemalta (METAR- ja TAF-raportit).

Käytössä olevat sääasemat on merkitty karttaan keltaisilla ja punaisilla pisteillä.

Aseta hiiri pisteen päälle nähdäksesi sääaseman nimen.

Klikkaa sitten nähdäksesi säähavainnot ja -ennusteet.

Kartan vaihtaminen: klikkaa mustalla rastilla varustettuja vihreitä pisteitä, niin voit zoomata sisään; viivalla varustettua vihreää pistettä, niin voit zoomata ulos tai vihreitä nuolia, niin pääset viereisille kartoille.


METAR-TAF: